sensor_id;sensor_type;location;lat;lon;timestamp;P1;durP1;ratioP1;P2;durP2;ratioP2
8046;SDS011;67150;42.516;23.358;2023-07-13T00:00:41;3.90;;;3.60;;
8046;SDS011;67150;42.516;23.358;2023-07-13T00:03:08;4.03;;;3.73;;
8046;SDS011;67150;42.516;23.358;2023-07-13T00:05:40;4.47;;;4.07;;
8046;SDS011;67150;42.516;23.358;2023-07-13T00:08:07;4.07;;;3.70;;
8046;SDS011;67150;42.516;23.358;2023-07-13T00:10:39;5.13;;;3.80;;
8046;SDS011;67150;42.516;23.358;2023-07-13T00:13:07;5.50;;;4.17;;
8046;SDS011;67150;42.516;23.358;2023-07-13T00:15:35;4.30;;;3.90;;
8046;SDS011;67150;42.516;23.358;2023-07-13T00:18:02;3.73;;;3.43;;
8046;SDS011;67150;42.516;23.358;2023-07-13T00:20:30;3.80;;;3.50;;
8046;SDS011;67150;42.516;23.358;2023-07-13T00:23:03;4.40;;;4.00;;
8046;SDS011;67150;42.516;23.358;2023-07-13T00:25:30;4.20;;;3.80;;
8046;SDS011;67150;42.516;23.358;2023-07-13T00:27:57;4.63;;;3.90;;
8046;SDS011;67150;42.516;23.358;2023-07-13T00:30:24;4.30;;;3.90;;
8046;SDS011;67150;42.516;23.358;2023-07-13T00:32:52;4.17;;;3.87;;
8046;SDS011;67150;42.516;23.358;2023-07-13T00:35:19;4.43;;;4.03;;
8046;SDS011;67150;42.516;23.358;2023-07-13T00:37:46;4.10;;;3.70;;
8046;SDS011;67150;42.516;23.358;2023-07-13T00:40:15;4.10;;;3.80;;
8046;SDS011;67150;42.516;23.358;2023-07-13T00:42:43;3.97;;;3.67;;
8046;SDS011;67150;42.516;23.358;2023-07-13T00:48:11;4.13;;;3.73;;
8046;SDS011;67150;42.516;23.358;2023-07-13T00:50:39;4.60;;;4.20;;
8046;SDS011;67150;42.516;23.358;2023-07-13T00:53:08;4.07;;;3.77;;
8046;SDS011;67150;42.516;23.358;2023-07-13T00:55:37;5.87;;;4.07;;
8046;SDS011;67150;42.516;23.358;2023-07-13T00:58:05;4.27;;;3.87;;
8046;SDS011;67150;42.516;23.358;2023-07-13T01:00:33;4.30;;;3.97;;
8046;SDS011;67150;42.516;23.358;2023-07-13T01:03:03;4.07;;;3.67;;
8046;SDS011;67150;42.516;23.358;2023-07-13T01:05:32;4.50;;;4.10;;
8046;SDS011;67150;42.516;23.358;2023-07-13T01:08:01;4.33;;;3.93;;
8046;SDS011;67150;42.516;23.358;2023-07-13T01:10:29;4.37;;;3.67;;
8046;SDS011;67150;42.516;23.358;2023-07-13T01:13:06;3.93;;;3.53;;
8046;SDS011;67150;42.516;23.358;2023-07-13T01:15:35;4.23;;;3.87;;
8046;SDS011;67150;42.516;23.358;2023-07-13T01:18:04;4.10;;;3.80;;
8046;SDS011;67150;42.516;23.358;2023-07-13T01:20:33;4.63;;;4.23;;
8046;SDS011;67150;42.516;23.358;2023-07-13T01:23:04;4.43;;;3.83;;
8046;SDS011;67150;42.516;23.358;2023-07-13T01:25:33;4.70;;;4.13;;
8046;SDS011;67150;42.516;23.358;2023-07-13T01:28:01;4.10;;;3.80;;
8046;SDS011;67150;42.516;23.358;2023-07-13T01:30:29;4.63;;;4.23;;
8046;SDS011;67150;42.516;23.358;2023-07-13T01:32:56;4.30;;;3.90;;
8046;SDS011;67150;42.516;23.358;2023-07-13T01:35:24;4.47;;;4.07;;
8046;SDS011;67150;42.516;23.358;2023-07-13T01:37:52;4.40;;;4.07;;
8046;SDS011;67150;42.516;23.358;2023-07-13T01:40:21;4.73;;;4.23;;
8046;SDS011;67150;42.516;23.358;2023-07-13T01:42:48;4.47;;;4.07;;
8046;SDS011;67150;42.516;23.358;2023-07-13T01:45:15;4.97;;;3.97;;
8046;SDS011;67150;42.516;23.358;2023-07-13T01:47:43;4.60;;;4.20;;
8046;SDS011;67150;42.516;23.358;2023-07-13T01:50:10;4.00;;;3.67;;
8046;SDS011;67150;42.516;23.358;2023-07-13T01:52:37;4.67;;;4.13;;
8046;SDS011;67150;42.516;23.358;2023-07-13T01:55:05;4.50;;;4.10;;
8046;SDS011;67150;42.516;23.358;2023-07-13T01:57:35;4.30;;;3.90;;
8046;SDS011;67150;42.516;23.358;2023-07-13T02:00:03;4.40;;;4.00;;
8046;SDS011;67150;42.516;23.358;2023-07-13T02:02:32;4.57;;;4.17;;
8046;SDS011;67150;42.516;23.358;2023-07-13T02:05:00;4.80;;;4.03;;
8046;SDS011;67150;42.516;23.358;2023-07-13T02:07:27;4.57;;;4.17;;
8046;SDS011;67150;42.516;23.358;2023-07-13T02:09:54;4.80;;;4.30;;
8046;SDS011;67150;42.516;23.358;2023-07-13T02:12:21;4.27;;;3.90;;
8046;SDS011;67150;42.516;23.358;2023-07-13T02:14:50;4.53;;;4.13;;
8046;SDS011;67150;42.516;23.358;2023-07-13T02:17:17;4.40;;;4.00;;
8046;SDS011;67150;42.516;23.358;2023-07-13T02:19:45;4.23;;;3.83;;
8046;SDS011;67150;42.516;23.358;2023-07-13T02:22:12;4.70;;;4.30;;
8046;SDS011;67150;42.516;23.358;2023-07-13T02:24:39;4.33;;;3.93;;
8046;SDS011;67150;42.516;23.358;2023-07-13T02:27:06;4.30;;;3.90;;
8046;SDS011;67150;42.516;23.358;2023-07-13T02:29:34;4.50;;;4.10;;
8046;SDS011;67150;42.516;23.358;2023-07-13T02:32:03;4.43;;;4.03;;
8046;SDS011;67150;42.516;23.358;2023-07-13T02:34:30;4.47;;;4.07;;
8046;SDS011;67150;42.516;23.358;2023-07-13T02:36:58;5.60;;;4.57;;
8046;SDS011;67150;42.516;23.358;2023-07-13T02:39:25;4.77;;;4.20;;
8046;SDS011;67150;42.516;23.358;2023-07-13T02:41:53;4.30;;;3.80;;
8046;SDS011;67150;42.516;23.358;2023-07-13T02:44:20;7.17;;;4.17;;
8046;SDS011;67150;42.516;23.358;2023-07-13T02:46:47;5.57;;;3.80;;
8046;SDS011;67150;42.516;23.358;2023-07-13T02:49:16;4.40;;;4.00;;
8046;SDS011;67150;42.516;23.358;2023-07-13T02:51:43;4.83;;;4.40;;
8046;SDS011;67150;42.516;23.358;2023-07-13T02:54:10;4.80;;;4.40;;
8046;SDS011;67150;42.516;23.358;2023-07-13T02:56:39;4.73;;;3.80;;
8046;SDS011;67150;42.516;23.358;2023-07-13T02:59:07;5.10;;;4.60;;
8046;SDS011;67150;42.516;23.358;2023-07-13T03:01:34;4.77;;;4.10;;
8046;SDS011;67150;42.516;23.358;2023-07-13T03:04:02;4.73;;;4.33;;
8046;SDS011;67150;42.516;23.358;2023-07-13T03:06:31;4.83;;;4.43;;
8046;SDS011;67150;42.516;23.358;2023-07-13T03:08:59;5.07;;;4.30;;
8046;SDS011;67150;42.516;23.358;2023-07-13T03:11:27;4.63;;;4.27;;
8046;SDS011;67150;42.516;23.358;2023-07-13T03:13:55;4.23;;;3.93;;
8046;SDS011;67150;42.516;23.358;2023-07-13T03:16:22;4.80;;;4.40;;
8046;SDS011;67150;42.516;23.358;2023-07-13T03:18:49;4.93;;;4.53;;
8046;SDS011;67150;42.516;23.358;2023-07-13T03:21:17;4.83;;;4.43;;
8046;SDS011;67150;42.516;23.358;2023-07-13T03:23:45;4.70;;;4.30;;
8046;SDS011;67150;42.516;23.358;2023-07-13T03:26:14;4.63;;;4.20;;
8046;SDS011;67150;42.516;23.358;2023-07-13T03:28:43;4.77;;;4.37;;
8046;SDS011;67150;42.516;23.358;2023-07-13T03:31:12;4.33;;;4.00;;
8046;SDS011;67150;42.516;23.358;2023-07-13T03:33:40;4.73;;;4.30;;
8046;SDS011;67150;42.516;23.358;2023-07-13T03:36:11;5.30;;;4.70;;
8046;SDS011;67150;42.516;23.358;2023-07-13T03:38:39;4.70;;;4.30;;
8046;SDS011;67150;42.516;23.358;2023-07-13T03:41:08;4.93;;;4.53;;
8046;SDS011;67150;42.516;23.358;2023-07-13T03:43:35;4.57;;;4.17;;
8046;SDS011;67150;42.516;23.358;2023-07-13T03:46:03;4.93;;;4.47;;
8046;SDS011;67150;42.516;23.358;2023-07-13T03:48:30;6.83;;;4.83;;
8046;SDS011;67150;42.516;23.358;2023-07-13T03:50:57;4.93;;;4.47;;
8046;SDS011;67150;42.516;23.358;2023-07-13T03:53:25;5.10;;;4.60;;
8046;SDS011;67150;42.516;23.358;2023-07-13T03:55:52;4.90;;;4.50;;
8046;SDS011;67150;42.516;23.358;2023-07-13T03:58:25;5.10;;;4.60;;
8046;SDS011;67150;42.516;23.358;2023-07-13T04:00:55;5.30;;;4.80;;
8046;SDS011;67150;42.516;23.358;2023-07-13T04:03:22;4.50;;;4.10;;
8046;SDS011;67150;42.516;23.358;2023-07-13T04:05:50;6.53;;;4.93;;
8046;SDS011;67150;42.516;23.358;2023-07-13T04:08:17;4.90;;;4.50;;
8046;SDS011;67150;42.516;23.358;2023-07-13T04:10:45;4.70;;;4.30;;
8046;SDS011;67150;42.516;23.358;2023-07-13T04:13:12;5.00;;;4.60;;
8046;SDS011;67150;42.516;23.358;2023-07-13T04:15:41;5.03;;;4.63;;
8046;SDS011;67150;42.516;23.358;2023-07-13T04:18:09;4.97;;;4.57;;
8046;SDS011;67150;42.516;23.358;2023-07-13T04:20:36;5.27;;;4.73;;
8046;SDS011;67150;42.516;23.358;2023-07-13T04:23:03;5.17;;;4.67;;
8046;SDS011;67150;42.516;23.358;2023-07-13T04:25:31;7.00;;;4.67;;
8046;SDS011;67150;42.516;23.358;2023-07-13T04:27:58;5.57;;;4.83;;
8046;SDS011;67150;42.516;23.358;2023-07-13T04:30:25;5.10;;;4.60;;
8046;SDS011;67150;42.516;23.358;2023-07-13T04:32:54;5.10;;;4.60;;
8046;SDS011;67150;42.516;23.358;2023-07-13T04:35:21;5.40;;;4.90;;
8046;SDS011;67150;42.516;23.358;2023-07-13T04:37:49;5.43;;;4.60;;
8046;SDS011;67150;42.516;23.358;2023-07-13T04:40:16;5.60;;;5.10;;
8046;SDS011;67150;42.516;23.358;2023-07-13T04:42:44;5.67;;;5.10;;
8046;SDS011;67150;42.516;23.358;2023-07-13T04:45:12;4.90;;;4.50;;
8046;SDS011;67150;42.516;23.358;2023-07-13T04:47:40;5.40;;;4.90;;
8046;SDS011;67150;42.516;23.358;2023-07-13T04:50:10;5.37;;;4.90;;
8046;SDS011;67150;42.516;23.358;2023-07-13T04:52:40;5.40;;;4.90;;
8046;SDS011;67150;42.516;23.358;2023-07-13T04:55:08;6.93;;;4.83;;
8046;SDS011;67150;42.516;23.358;2023-07-13T04:57:36;5.47;;;4.97;;
8046;SDS011;67150;42.516;23.358;2023-07-13T05:00:03;5.37;;;4.87;;
8046;SDS011;67150;42.516;23.358;2023-07-13T05:02:33;5.60;;;5.03;;
8046;SDS011;67150;42.516;23.358;2023-07-13T05:05:01;5.53;;;5.03;;
8046;SDS011;67150;42.516;23.358;2023-07-13T05:07:30;5.80;;;5.20;;
8046;SDS011;67150;42.516;23.358;2023-07-13T05:09:58;5.40;;;4.90;;
8046;SDS011;67150;42.516;23.358;2023-07-13T05:12:25;5.07;;;4.67;;
8046;SDS011;67150;42.516;23.358;2023-07-13T05:14:53;5.30;;;4.80;;
8046;SDS011;67150;42.516;23.358;2023-07-13T05:17:20;5.33;;;4.83;;
8046;SDS011;67150;42.516;23.358;2023-07-13T05:19:47;6.40;;;4.73;;
8046;SDS011;67150;42.516;23.358;2023-07-13T05:22:15;5.40;;;5.00;;
8046;SDS011;67150;42.516;23.358;2023-07-13T05:24:43;5.33;;;4.90;;
8046;SDS011;67150;42.516;23.358;2023-07-13T05:27:11;4.90;;;4.50;;
8046;SDS011;67150;42.516;23.358;2023-07-13T05:29:38;5.60;;;5.10;;
8046;SDS011;67150;42.516;23.358;2023-07-13T05:32:06;5.17;;;4.77;;
8046;SDS011;67150;42.516;23.358;2023-07-13T05:34:33;5.70;;;5.20;;
8046;SDS011;67150;42.516;23.358;2023-07-13T05:37:00;5.53;;;4.80;;
8046;SDS011;67150;42.516;23.358;2023-07-13T05:39:28;5.23;;;4.73;;
8046;SDS011;67150;42.516;23.358;2023-07-13T05:41:56;6.00;;;5.40;;
8046;SDS011;67150;42.516;23.358;2023-07-13T05:44:24;5.60;;;5.10;;
8046;SDS011;67150;42.516;23.358;2023-07-13T05:46:51;5.70;;;5.20;;
8046;SDS011;67150;42.516;23.358;2023-07-13T05:49:18;6.90;;;5.23;;
8046;SDS011;67150;42.516;23.358;2023-07-13T05:51:45;5.73;;;5.23;;
8046;SDS011;67150;42.516;23.358;2023-07-13T05:54:13;5.27;;;4.80;;
8046;SDS011;67150;42.516;23.358;2023-07-13T05:56:40;5.37;;;4.90;;
8046;SDS011;67150;42.516;23.358;2023-07-13T05:59:09;4.93;;;4.53;;
8046;SDS011;67150;42.516;23.358;2023-07-13T06:01:36;4.80;;;4.50;;
8046;SDS011;67150;42.516;23.358;2023-07-13T06:04:03;5.30;;;4.80;;
8046;SDS011;67150;42.516;23.358;2023-07-13T06:06:31;5.50;;;5.00;;
8046;SDS011;67150;42.516;23.358;2023-07-13T06:08:58;5.43;;;4.40;;
8046;SDS011;67150;42.516;23.358;2023-07-13T06:11:25;5.10;;;4.60;;
8046;SDS011;67150;42.516;23.358;2023-07-13T06:13:55;5.30;;;4.90;;
8046;SDS011;67150;42.516;23.358;2023-07-13T06:16:24;5.90;;;4.33;;
8046;SDS011;67150;42.516;23.358;2023-07-13T06:18:51;5.60;;;5.10;;
8046;SDS011;67150;42.516;23.358;2023-07-13T06:21:19;5.20;;;4.80;;
8046;SDS011;67150;42.516;23.358;2023-07-13T06:23:48;5.10;;;4.70;;
8046;SDS011;67150;42.516;23.358;2023-07-13T06:26:18;5.43;;;4.93;;
8046;SDS011;67150;42.516;23.358;2023-07-13T06:28:46;5.27;;;4.77;;
8046;SDS011;67150;42.516;23.358;2023-07-13T06:31:13;6.90;;;5.00;;
8046;SDS011;67150;42.516;23.358;2023-07-13T06:33:43;5.10;;;4.57;;
8046;SDS011;67150;42.516;23.358;2023-07-13T06:36:11;5.10;;;4.60;;
8046;SDS011;67150;42.516;23.358;2023-07-13T06:38:38;4.93;;;4.53;;
8046;SDS011;67150;42.516;23.358;2023-07-13T06:41:05;5.70;;;5.20;;
8046;SDS011;67150;42.516;23.358;2023-07-13T06:43:34;5.40;;;4.90;;
8046;SDS011;67150;42.516;23.358;2023-07-13T06:46:01;6.93;;;5.07;;
8046;SDS011;67150;42.516;23.358;2023-07-13T06:48:29;5.77;;;4.93;;
8046;SDS011;67150;42.516;23.358;2023-07-13T06:50:58;5.10;;;4.70;;
8046;SDS011;67150;42.516;23.358;2023-07-13T06:53:25;5.93;;;4.90;;
8046;SDS011;67150;42.516;23.358;2023-07-13T06:55:52;5.10;;;4.60;;
8046;SDS011;67150;42.516;23.358;2023-07-13T06:58:21;5.70;;;4.97;;
8046;SDS011;67150;42.516;23.358;2023-07-13T07:00:50;4.97;;;4.57;;
8046;SDS011;67150;42.516;23.358;2023-07-13T07:03:18;5.10;;;4.60;;
8046;SDS011;67150;42.516;23.358;2023-07-13T07:05:46;5.87;;;4.80;;
8046;SDS011;67150;42.516;23.358;2023-07-13T07:08:14;6.73;;;5.03;;
8046;SDS011;67150;42.516;23.358;2023-07-13T07:10:42;5.83;;;5.03;;
8046;SDS011;67150;42.516;23.358;2023-07-13T07:13:10;5.80;;;4.97;;
8046;SDS011;67150;42.516;23.358;2023-07-13T07:15:37;5.90;;;5.03;;
8046;SDS011;67150;42.516;23.358;2023-07-13T07:18:04;5.47;;;4.93;;
8046;SDS011;67150;42.516;23.358;2023-07-13T07:20:32;5.10;;;4.60;;
8046;SDS011;67150;42.516;23.358;2023-07-13T07:22:59;6.93;;;5.10;;
8046;SDS011;67150;42.516;23.358;2023-07-13T07:25:28;5.00;;;4.50;;
8046;SDS011;67150;42.516;23.358;2023-07-13T07:27:57;5.30;;;4.77;;
8046;SDS011;67150;42.516;23.358;2023-07-13T07:30:26;4.90;;;4.50;;
8046;SDS011;67150;42.516;23.358;2023-07-13T07:32:53;4.87;;;4.47;;
8046;SDS011;67150;42.516;23.358;2023-07-13T07:35:23;5.60;;;4.77;;
8046;SDS011;67150;42.516;23.358;2023-07-13T07:37:50;5.37;;;4.87;;
8046;SDS011;67150;42.516;23.358;2023-07-13T07:40:19;5.43;;;4.77;;
8046;SDS011;67150;42.516;23.358;2023-07-13T07:42:48;5.00;;;4.60;;
8046;SDS011;67150;42.516;23.358;2023-07-13T07:45:15;5.50;;;5.00;;
8046;SDS011;67150;42.516;23.358;2023-07-13T07:47:43;5.00;;;4.60;;
8046;SDS011;67150;42.516;23.358;2023-07-13T07:50:10;6.07;;;5.47;;
8046;SDS011;67150;42.516;23.358;2023-07-13T07:52:37;5.90;;;5.40;;
8046;SDS011;67150;42.516;23.358;2023-07-13T07:55:06;6.60;;;5.37;;
8046;SDS011;67150;42.516;23.358;2023-07-13T07:57:34;5.67;;;5.20;;
8046;SDS011;67150;42.516;23.358;2023-07-13T08:00:03;5.50;;;5.00;;
8046;SDS011;67150;42.516;23.358;2023-07-13T08:02:31;5.93;;;5.37;;
8046;SDS011;67150;42.516;23.358;2023-07-13T08:04:58;6.40;;;5.30;;
8046;SDS011;67150;42.516;23.358;2023-07-13T08:07:26;5.67;;;5.17;;
8046;SDS011;67150;42.516;23.358;2023-07-13T08:09:53;5.20;;;4.70;;
8046;SDS011;67150;42.516;23.358;2023-07-13T08:12:21;5.10;;;4.60;;
8046;SDS011;67150;42.516;23.358;2023-07-13T08:14:49;4.70;;;4.30;;
8046;SDS011;67150;42.516;23.358;2023-07-13T08:17:20;5.30;;;4.30;;
8046;SDS011;67150;42.516;23.358;2023-07-13T08:19:47;4.90;;;4.40;;
8046;SDS011;67150;42.516;23.358;2023-07-13T08:22:18;4.70;;;4.17;;
8046;SDS011;67150;42.516;23.358;2023-07-13T08:24:45;4.70;;;4.30;;
8046;SDS011;67150;42.516;23.358;2023-07-13T08:27:23;5.07;;;4.57;;
8046;SDS011;67150;42.516;23.358;2023-07-13T08:29:51;4.93;;;4.40;;
8046;SDS011;67150;42.516;23.358;2023-07-13T08:32:21;5.20;;;4.70;;
8046;SDS011;67150;42.516;23.358;2023-07-13T08:34:49;5.00;;;4.33;;
8046;SDS011;67150;42.516;23.358;2023-07-13T08:37:17;7.43;;;5.00;;
8046;SDS011;67150;42.516;23.358;2023-07-13T08:39:45;5.30;;;4.77;;
8046;SDS011;67150;42.516;23.358;2023-07-13T08:42:14;6.50;;;4.70;;
8046;SDS011;67150;42.516;23.358;2023-07-13T08:44:50;5.80;;;4.17;;
8046;SDS011;67150;42.516;23.358;2023-07-13T08:47:25;5.80;;;4.37;;
8046;SDS011;67150;42.516;23.358;2023-07-13T08:49:55;5.13;;;4.60;;
8046;SDS011;67150;42.516;23.358;2023-07-13T08:52:26;5.97;;;5.10;;
8046;SDS011;67150;42.516;23.358;2023-07-13T08:55:01;5.40;;;4.90;;
8046;SDS011;67150;42.516;23.358;2023-07-13T08:57:33;6.17;;;4.40;;
8046;SDS011;67150;42.516;23.358;2023-07-13T09:00:01;5.53;;;4.50;;
8046;SDS011;67150;42.516;23.358;2023-07-13T09:02:41;5.13;;;4.50;;
8046;SDS011;67150;42.516;23.358;2023-07-13T09:05:14;6.37;;;4.80;;
8046;SDS011;67150;42.516;23.358;2023-07-13T09:07:49;6.43;;;4.23;;
8046;SDS011;67150;42.516;23.358;2023-07-13T09:10:28;6.53;;;4.90;;
8046;SDS011;67150;42.516;23.358;2023-07-13T09:13:00;5.57;;;4.67;;
8046;SDS011;67150;42.516;23.358;2023-07-13T09:15:41;5.83;;;4.90;;
8046;SDS011;67150;42.516;23.358;2023-07-13T09:18:14;5.30;;;4.73;;
8046;SDS011;67150;42.516;23.358;2023-07-13T09:20:47;6.77;;;4.60;;
8046;SDS011;67150;42.516;23.358;2023-07-13T09:23:20;4.93;;;4.53;;
8046;SDS011;67150;42.516;23.358;2023-07-13T09:25:48;5.27;;;4.77;;
8046;SDS011;67150;42.516;23.358;2023-07-13T09:28:22;5.37;;;4.47;;
8046;SDS011;67150;42.516;23.358;2023-07-13T09:30:54;6.27;;;4.90;;
8046;SDS011;67150;42.516;23.358;2023-07-13T09:33:29;5.27;;;4.77;;
8046;SDS011;67150;42.516;23.358;2023-07-13T09:35:56;6.30;;;4.80;;
8046;SDS011;67150;42.516;23.358;2023-07-13T09:38:25;5.70;;;5.20;;
8046;SDS011;67150;42.516;23.358;2023-07-13T09:41:04;5.90;;;5.30;;
8046;SDS011;67150;42.516;23.358;2023-07-13T09:46:27;7.03;;;6.20;;
8046;SDS011;67150;42.516;23.358;2023-07-13T09:48:57;6.87;;;6.27;;
8046;SDS011;67150;42.516;23.358;2023-07-13T09:51:24;7.83;;;6.90;;
8046;SDS011;67150;42.516;23.358;2023-07-13T09:53:52;7.30;;;6.60;;
8046;SDS011;67150;42.516;23.358;2023-07-13T09:56:20;6.77;;;6.10;;
8046;SDS011;67150;42.516;23.358;2023-07-13T09:58:48;6.93;;;6.17;;
8046;SDS011;67150;42.516;23.358;2023-07-13T10:01:15;7.00;;;5.93;;
8046;SDS011;67150;42.516;23.358;2023-07-13T10:03:59;7.07;;;6.37;;
8046;SDS011;67150;42.516;23.358;2023-07-13T10:06:26;7.80;;;7.00;;
8046;SDS011;67150;42.516;23.358;2023-07-13T10:08:55;7.93;;;6.23;;
8046;SDS011;67150;42.516;23.358;2023-07-13T10:11:23;7.20;;;6.30;;
8046;SDS011;67150;42.516;23.358;2023-07-13T10:13:55;6.40;;;5.90;;
8046;SDS011;67150;42.516;23.358;2023-07-13T10:16:25;7.27;;;5.97;;
8046;SDS011;67150;42.516;23.358;2023-07-13T10:19:00;6.80;;;6.20;;
8046;SDS011;67150;42.516;23.358;2023-07-13T10:21:32;7.20;;;6.50;;
8046;SDS011;67150;42.516;23.358;2023-07-13T10:24:05;6.20;;;5.70;;
8046;SDS011;67150;42.516;23.358;2023-07-13T10:26:43;7.00;;;6.40;;
8046;SDS011;67150;42.516;23.358;2023-07-13T10:29:18;6.27;;;5.77;;
8046;SDS011;67150;42.516;23.358;2023-07-13T10:31:49;7.63;;;6.07;;
8046;SDS011;67150;42.516;23.358;2023-07-13T10:34:18;6.83;;;6.00;;
8046;SDS011;67150;42.516;23.358;2023-07-13T10:36:46;7.27;;;6.57;;
8046;SDS011;67150;42.516;23.358;2023-07-13T10:39:16;8.20;;;5.70;;
8046;SDS011;67150;42.516;23.358;2023-07-13T10:41:47;7.70;;;5.40;;
8046;SDS011;67150;42.516;23.358;2023-07-13T10:44:19;5.97;;;5.37;;
8046;SDS011;67150;42.516;23.358;2023-07-13T10:46:57;6.30;;;5.70;;
8046;SDS011;67150;42.516;23.358;2023-07-13T10:49:28;6.97;;;5.70;;
8046;SDS011;67150;42.516;23.358;2023-07-13T10:51:58;5.87;;;5.37;;
8046;SDS011;67150;42.516;23.358;2023-07-13T10:54:30;6.23;;;5.10;;
8046;SDS011;67150;42.516;23.358;2023-07-13T10:59:48;6.70;;;4.77;;
8046;SDS011;67150;42.516;23.358;2023-07-13T11:02:36;5.87;;;5.37;;
8046;SDS011;67150;42.516;23.358;2023-07-13T11:05:17;6.30;;;5.53;;
8046;SDS011;67150;42.516;23.358;2023-07-13T11:07:55;6.30;;;5.70;;
8046;SDS011;67150;42.516;23.358;2023-07-13T11:10:46;7.13;;;6.00;;
8046;SDS011;67150;42.516;23.358;2023-07-13T11:16:42;7.50;;;5.80;;
8046;SDS011;67150;42.516;23.358;2023-07-13T11:19:28;6.40;;;5.90;;
8046;SDS011;67150;42.516;23.358;2023-07-13T11:22:23;6.93;;;5.83;;
8046;SDS011;67150;42.516;23.358;2023-07-13T11:25:00;6.00;;;5.40;;
8046;SDS011;67150;42.516;23.358;2023-07-13T11:27:34;6.23;;;5.63;;
8046;SDS011;67150;42.516;23.358;2023-07-13T11:30:07;7.97;;;5.60;;
8046;SDS011;67150;42.516;23.358;2023-07-13T11:32:51;6.47;;;5.60;;
8046;SDS011;67150;42.516;23.358;2023-07-13T11:35:31;6.97;;;5.67;;
8046;SDS011;67150;42.516;23.358;2023-07-13T11:38:03;6.27;;;5.67;;
8046;SDS011;67150;42.516;23.358;2023-07-13T11:40:42;6.23;;;5.63;;
8046;SDS011;67150;42.516;23.358;2023-07-13T11:43:12;6.30;;;5.63;;
8046;SDS011;67150;42.516;23.358;2023-07-13T11:45:41;7.97;;;5.73;;
8046;SDS011;67150;42.516;23.358;2023-07-13T11:48:19;6.10;;;5.50;;
8046;SDS011;67150;42.516;23.358;2023-07-13T11:50:51;6.53;;;5.50;;
8046;SDS011;67150;42.516;23.358;2023-07-13T11:53:25;6.87;;;5.90;;
8046;SDS011;67150;42.516;23.358;2023-07-13T11:55:56;6.13;;;5.40;;
8046;SDS011;67150;42.516;23.358;2023-07-13T11:58:25;6.77;;;5.90;;
8046;SDS011;67150;42.516;23.358;2023-07-13T12:00:54;8.87;;;5.73;;
8046;SDS011;67150;42.516;23.358;2023-07-13T12:03:26;6.77;;;6.00;;
8046;SDS011;67150;42.516;23.358;2023-07-13T12:05:55;7.23;;;5.47;;
8046;SDS011;67150;42.516;23.358;2023-07-13T12:08:25;7.43;;;5.60;;
8046;SDS011;67150;42.516;23.358;2023-07-13T12:10:59;6.50;;;5.83;;
8046;SDS011;67150;42.516;23.358;2023-07-13T12:13:34;8.27;;;5.70;;
8046;SDS011;67150;42.516;23.358;2023-07-13T12:16:07;5.87;;;5.37;;
8046;SDS011;67150;42.516;23.358;2023-07-13T12:18:42;8.00;;;5.50;;
8046;SDS011;67150;42.516;23.358;2023-07-13T12:21:14;8.40;;;5.43;;
8046;SDS011;67150;42.516;23.358;2023-07-13T12:23:47;7.83;;;5.70;;
8046;SDS011;67150;42.516;23.358;2023-07-13T12:26:16;9.60;;;5.80;;
8046;SDS011;67150;42.516;23.358;2023-07-13T12:28:46;6.57;;;5.93;;
8046;SDS011;67150;42.516;23.358;2023-07-13T12:31:22;7.13;;;5.73;;
8046;SDS011;67150;42.516;23.358;2023-07-13T12:33:58;6.80;;;6.03;;
8046;SDS011;67150;42.516;23.358;2023-07-13T12:36:29;7.40;;;6.27;;
8046;SDS011;67150;42.516;23.358;2023-07-13T12:39:02;6.40;;;5.80;;
8046;SDS011;67150;42.516;23.358;2023-07-13T12:41:39;6.50;;;5.80;;
8046;SDS011;67150;42.516;23.358;2023-07-13T12:44:09;7.00;;;6.03;;
8046;SDS011;67150;42.516;23.358;2023-07-13T12:46:38;6.43;;;5.83;;
8046;SDS011;67150;42.516;23.358;2023-07-13T12:49:06;7.77;;;5.70;;
8046;SDS011;67150;42.516;23.358;2023-07-13T12:51:34;8.97;;;5.80;;
8046;SDS011;67150;42.516;23.358;2023-07-13T12:54:13;8.47;;;6.07;;
8046;SDS011;67150;42.516;23.358;2023-07-13T12:56:43;7.37;;;6.03;;
8046;SDS011;67150;42.516;23.358;2023-07-13T12:59:16;7.50;;;5.40;;
8046;SDS011;67150;42.516;23.358;2023-07-13T13:01:45;6.70;;;6.00;;
8046;SDS011;67150;42.516;23.358;2023-07-13T13:04:14;6.90;;;6.30;;
8046;SDS011;67150;42.516;23.358;2023-07-13T13:06:46;6.67;;;5.60;;
8046;SDS011;67150;42.516;23.358;2023-07-13T13:09:16;7.33;;;5.67;;
8046;SDS011;67150;42.516;23.358;2023-07-13T13:11:46;8.37;;;6.10;;
8046;SDS011;67150;42.516;23.358;2023-07-13T13:14:14;6.43;;;5.70;;
8046;SDS011;67150;42.516;23.358;2023-07-13T13:16:44;7.07;;;5.53;;
8046;SDS011;67150;42.516;23.358;2023-07-13T13:19:15;7.07;;;5.57;;
8046;SDS011;67150;42.516;23.358;2023-07-13T13:21:47;6.60;;;5.60;;
8046;SDS011;67150;42.516;23.358;2023-07-13T13:24:17;7.43;;;6.00;;
8046;SDS011;67150;42.516;23.358;2023-07-13T13:26:47;6.60;;;5.90;;
8046;SDS011;67150;42.516;23.358;2023-07-13T13:29:17;9.73;;;5.80;;
8046;SDS011;67150;42.516;23.358;2023-07-13T13:31:46;7.67;;;5.43;;
8046;SDS011;67150;42.516;23.358;2023-07-13T13:34:14;8.83;;;5.50;;
8046;SDS011;67150;42.516;23.358;2023-07-13T13:36:43;9.17;;;5.30;;
8046;SDS011;67150;42.516;23.358;2023-07-13T13:39:18;7.93;;;5.63;;
8046;SDS011;67150;42.516;23.358;2023-07-13T13:41:48;5.70;;;4.90;;
8046;SDS011;67150;42.516;23.358;2023-07-13T13:44:16;7.27;;;5.60;;
8046;SDS011;67150;42.516;23.358;2023-07-13T13:46:44;5.97;;;5.33;;
8046;SDS011;67150;42.516;23.358;2023-07-13T13:49:15;6.60;;;5.30;;
8046;SDS011;67150;42.516;23.358;2023-07-13T13:51:45;7.90;;;5.60;;
8046;SDS011;67150;42.516;23.358;2023-07-13T13:54:14;8.00;;;5.37;;
8046;SDS011;67150;42.516;23.358;2023-07-13T13:56:45;7.97;;;5.57;;
8046;SDS011;67150;42.516;23.358;2023-07-13T13:59:13;6.17;;;5.23;;
8046;SDS011;67150;42.516;23.358;2023-07-13T14:01:41;5.90;;;5.30;;
8046;SDS011;67150;42.516;23.358;2023-07-13T14:04:12;7.87;;;4.97;;
8046;SDS011;67150;42.516;23.358;2023-07-13T14:06:43;7.53;;;4.93;;
8046;SDS011;67150;42.516;23.358;2023-07-13T14:09:10;8.63;;;5.10;;
8046;SDS011;67150;42.516;23.358;2023-07-13T14:11:40;6.13;;;4.73;;
8046;SDS011;67150;42.516;23.358;2023-07-13T14:14:12;8.60;;;4.80;;
8046;SDS011;67150;42.516;23.358;2023-07-13T14:16:43;7.63;;;5.07;;
8046;SDS011;67150;42.516;23.358;2023-07-13T14:19:12;6.97;;;5.40;;
8046;SDS011;67150;42.516;23.358;2023-07-13T14:21:40;8.50;;;5.20;;
8046;SDS011;67150;42.516;23.358;2023-07-13T14:24:08;8.77;;;4.77;;
8046;SDS011;67150;42.516;23.358;2023-07-13T14:26:36;6.27;;;5.00;;
8046;SDS011;67150;42.516;23.358;2023-07-13T14:29:08;6.13;;;4.80;;
8046;SDS011;67150;42.516;23.358;2023-07-13T14:31:42;6.33;;;4.60;;
8046;SDS011;67150;42.516;23.358;2023-07-13T14:34:10;7.57;;;4.53;;
8046;SDS011;67150;42.516;23.358;2023-07-13T14:36:42;8.10;;;5.33;;
8046;SDS011;67150;42.516;23.358;2023-07-13T14:39:13;6.20;;;4.60;;
8046;SDS011;67150;42.516;23.358;2023-07-13T14:41:41;7.47;;;4.97;;
8046;SDS011;67150;42.516;23.358;2023-07-13T14:44:13;6.17;;;4.53;;
8046;SDS011;67150;42.516;23.358;2023-07-13T14:46:41;6.20;;;4.77;;
8046;SDS011;67150;42.516;23.358;2023-07-13T14:49:13;7.27;;;4.63;;
8046;SDS011;67150;42.516;23.358;2023-07-13T14:51:46;6.80;;;4.93;;
8046;SDS011;67150;42.516;23.358;2023-07-13T14:54:13;5.97;;;4.77;;
8046;SDS011;67150;42.516;23.358;2023-07-13T14:56:40;7.63;;;5.03;;
8046;SDS011;67150;42.516;23.358;2023-07-13T14:59:08;5.30;;;4.70;;
8046;SDS011;67150;42.516;23.358;2023-07-13T15:01:39;7.47;;;4.93;;
8046;SDS011;67150;42.516;23.358;2023-07-13T15:04:08;5.27;;;4.67;;
8046;SDS011;67150;42.516;23.358;2023-07-13T15:09:24;6.90;;;5.00;;
8046;SDS011;67150;42.516;23.358;2023-07-13T15:11:52;7.70;;;5.13;;
8046;SDS011;67150;42.516;23.358;2023-07-13T15:14:20;6.10;;;5.07;;
8046;SDS011;67150;42.516;23.358;2023-07-13T15:16:51;7.37;;;4.90;;